createdAt,value
2019-02-20T00:00:02.747Z,95.93
2019-02-20T00:01:03.215Z,95.93
2019-02-20T00:02:03.688Z,95.93
2019-02-20T00:03:04.161Z,95.93
2019-02-20T00:04:04.629Z,95.92
2019-02-20T00:05:05.105Z,95.92
2019-02-20T00:06:05.571Z,95.92
2019-02-20T00:07:06.045Z,95.92
2019-02-20T00:08:06.515Z,95.92
2019-02-20T00:09:07.002Z,95.92
2019-02-20T00:10:07.458Z,95.92
2019-02-20T00:11:07.931Z,95.91
2019-02-20T00:12:08.404Z,95.93
2019-02-20T00:13:08.873Z,95.91
2019-02-20T00:14:09.343Z,95.91
2019-02-20T00:15:09.816Z,95.92
2019-02-20T00:16:10.285Z,95.91
2019-02-20T00:17:10.757Z,95.91
2019-02-20T00:18:11.232Z,95.91
2019-02-20T00:19:11.700Z,95.91
2019-02-20T00:20:12.171Z,95.91
2019-02-20T00:21:12.642Z,95.91
2019-02-20T00:22:13.114Z,95.91
2019-02-20T00:23:13.588Z,95.92
2019-02-20T00:24:14.059Z,95.91
2019-02-20T00:25:14.530Z,95.91
2019-02-20T00:26:15.016Z,95.92
2019-02-20T00:27:15.474Z,95.91
2019-02-20T00:28:15.945Z,95.93
2019-02-20T00:29:16.418Z,95.92
2019-02-20T00:30:16.888Z,95.93
2019-02-20T00:31:17.360Z,95.92
2019-02-20T00:32:17.832Z,95.91
2019-02-20T00:33:18.303Z,95.92
2019-02-20T00:34:18.779Z,95.93
2019-02-20T00:35:19.248Z,95.92
2019-02-20T00:36:19.768Z,95.93
2019-02-20T00:37:20.191Z,95.93
2019-02-20T00:38:20.667Z,95.95
2019-02-20T00:39:21.133Z,95.93
2019-02-20T00:40:21.605Z,95.95
2019-02-20T00:41:22.077Z,95.94
2019-02-20T00:42:22.549Z,95.94
2019-02-20T00:43:23.028Z,95.94
2019-02-20T00:44:23.494Z,95.96
2019-02-20T00:45:23.965Z,95.98
2019-02-20T00:46:24.437Z,95.95
2019-02-20T00:47:24.910Z,95.95
2019-02-20T00:48:25.381Z,95.95
2019-02-20T00:49:25.854Z,95.95
2019-02-20T00:50:26.326Z,95.96
2019-02-20T00:51:26.847Z,95.98
2019-02-20T00:52:27.270Z,95.96
2019-02-20T00:53:27.740Z,95.96
2019-02-20T00:54:28.213Z,95.97
2019-02-20T00:55:28.685Z,95.97
2019-02-20T00:56:29.164Z,95.97
2019-02-20T00:57:29.629Z,95.99
2019-02-20T00:58:30.104Z,95.98
2019-02-20T00:59:30.585Z,95.98
2019-02-20T01:00:31.046Z,95.98
2019-02-20T01:01:31.518Z,95.98
2019-02-20T01:02:31.990Z,95.98
2019-02-20T01:03:32.463Z,95.99
2019-02-20T01:04:32.934Z,95.99
2019-02-20T01:05:33.405Z,95.99
2019-02-20T01:06:33.880Z,96.00
2019-02-20T01:07:34.352Z,96.00
2019-02-20T01:08:34.822Z,96.00
2019-02-20T01:09:35.297Z,96.01
2019-02-20T01:11:36.241Z,96.03
2019-02-20T01:12:36.712Z,96.02
2019-02-20T01:13:37.183Z,96.02
2019-02-20T01:14:37.657Z,96.07
2019-02-20T01:15:38.129Z,96.02
2019-02-20T01:16:38.612Z,96.07
2019-02-20T01:17:39.073Z,96.03
2019-02-20T01:18:39.547Z,96.04
2019-02-20T01:19:40.023Z,96.04
2019-02-20T01:20:40.494Z,96.05
2019-02-20T01:21:40.966Z,96.05
2019-02-20T01:22:41.437Z,96.05
2019-02-20T01:23:41.908Z,96.05
2019-02-20T01:24:42.379Z,96.05
2019-02-20T01:26:43.375Z,96.05
2019-02-20T01:27:43.799Z,96.06
2019-02-20T01:28:44.266Z,96.06
2019-02-20T01:29:44.740Z,96.06
2019-02-20T01:30:45.212Z,96.06
2019-02-20T01:31:45.685Z,96.10
2019-02-20T01:32:46.156Z,96.06
2019-02-20T01:33:46.628Z,96.06
2019-02-20T01:34:47.097Z,96.06
2019-02-20T01:35:47.573Z,96.06
2019-02-20T01:36:48.039Z,96.06
2019-02-20T01:37:48.510Z,96.06
2019-02-20T01:38:48.978Z,96.06
2019-02-20T01:39:49.661Z,96.06
2019-02-20T01:40:49.923Z,96.06
2019-02-20T01:41:50.389Z,96.02
2019-02-20T01:42:50.858Z,96.06
2019-02-20T01:43:51.327Z,96.02
2019-02-20T01:44:51.795Z,96.02
2019-02-20T01:45:52.265Z,96.02
2019-02-20T01:46:52.741Z,96.01
2019-02-20T01:47:53.200Z,96.03
2019-02-20T01:48:53.668Z,96.01
2019-02-20T01:49:54.139Z,96.00
2019-02-20T01:50:54.607Z,96.01
2019-02-20T01:51:55.075Z,96.00
2019-02-20T01:52:55.544Z,95.99
2019-02-20T01:53:56.010Z,95.99
2019-02-20T01:54:56.478Z,95.99
2019-02-20T01:55:56.948Z,95.99
2019-02-20T01:56:57.418Z,95.99
2019-02-20T01:57:57.882Z,95.97
2019-02-20T01:58:58.351Z,95.98
2019-02-20T01:59:58.819Z,95.95
2019-02-20T02:00:59.287Z,95.98
2019-02-20T02:01:59.755Z,95.96
2019-02-20T02:03:00.223Z,95.97
2019-02-20T02:04:00.693Z,95.97
2019-02-20T02:05:01.160Z,95.93
2019-02-20T02:06:01.630Z,95.97
2019-02-20T02:07:02.097Z,95.96
2019-02-20T02:08:02.567Z,95.95
2019-02-20T02:09:03.031Z,95.92
2019-02-20T02:10:03.500Z,95.96
2019-02-20T02:11:03.968Z,95.96
2019-02-20T02:12:04.488Z,95.96
2019-02-20T02:13:04.905Z,95.96
2019-02-20T02:14:05.375Z,95.95
2019-02-20T02:15:05.843Z,95.95
2019-02-20T02:16:06.318Z,95.95
2019-02-20T02:17:06.781Z,95.95
2019-02-20T02:18:07.253Z,95.95
2019-02-20T02:19:07.720Z,95.95
2019-02-20T02:20:08.195Z,95.95
2019-02-20T02:21:08.661Z,95.95
2019-02-20T02:22:09.128Z,95.96
2019-02-20T02:23:09.598Z,95.94
2019-02-20T02:24:10.065Z,95.94
2019-02-20T02:25:10.541Z,95.93
2019-02-20T02:26:11.257Z,95.93
2019-02-20T02:27:11.525Z,95.93
2019-02-20T02:28:11.945Z,95.93
2019-02-20T02:29:12.413Z,95.95
2019-02-20T02:30:12.883Z,95.93
2019-02-20T02:31:13.355Z,95.93
2019-02-20T02:32:13.822Z,95.93
2019-02-20T02:33:14.378Z,95.93
2019-02-20T02:34:14.763Z,95.93
2019-02-20T02:35:15.237Z,95.93
2019-02-20T02:36:15.908Z,95.93
2019-02-20T02:37:16.175Z,95.93
2019-02-20T02:38:16.698Z,95.93
2019-02-20T02:39:17.115Z,95.93
2019-02-20T02:40:17.594Z,95.92
2019-02-20T02:41:18.056Z,95.93
2019-02-20T02:42:18.575Z,95.93
2019-02-20T02:43:18.995Z,95.93
2019-02-20T02:44:19.479Z,95.93
2019-02-20T02:45:19.966Z,95.96
2019-02-20T02:46:20.409Z,95.96
2019-02-20T02:47:20.877Z,95.93
2019-02-20T02:48:21.349Z,95.92
2019-02-20T02:49:21.819Z,95.92
2019-02-20T02:50:22.289Z,95.93
2019-02-20T02:51:22.760Z,95.96
2019-02-20T02:52:23.231Z,95.96
2019-02-20T02:53:30.309Z,95.93
2019-02-20T02:54:24.172Z,95.96
2019-02-20T02:55:24.643Z,95.96
2019-02-20T02:56:25.117Z,95.96
2019-02-20T02:57:25.585Z,95.96
2019-02-20T02:58:26.059Z,95.96
2019-02-20T02:59:26.544Z,95.96
2019-02-20T03:00:27.001Z,95.96
2019-02-20T03:01:27.470Z,95.92
2019-02-20T03:02:27.939Z,95.94
2019-02-20T03:03:28.411Z,95.95
2019-02-20T03:04:28.882Z,95.95
2019-02-20T03:05:29.356Z,95.94
2019-02-20T03:06:29.824Z,95.95
2019-02-20T03:07:30.303Z,95.93
2019-02-20T03:08:30.767Z,95.93
2019-02-20T03:09:31.239Z,95.91
2019-02-20T03:10:31.709Z,95.93
2019-02-20T03:11:32.180Z,95.94
2019-02-20T03:12:32.652Z,95.93
2019-02-20T03:13:33.122Z,95.90
2019-02-20T03:14:33.595Z,95.92
2019-02-20T03:15:34.065Z,95.91
2019-02-20T03:16:34.540Z,95.93
2019-02-20T03:17:35.013Z,95.95
2019-02-20T03:18:35.486Z,95.91
2019-02-20T03:19:35.952Z,95.91
2019-02-20T03:20:36.427Z,95.90
2019-02-20T03:21:36.896Z,95.90
2019-02-20T03:22:37.367Z,95.94
2019-02-20T03:23:40.161Z,95.92
2019-02-20T03:24:38.310Z,95.93
2019-02-20T03:25:38.782Z,95.89
2019-02-20T03:26:39.252Z,95.93
2019-02-20T03:27:39.774Z,95.91
2019-02-20T03:28:40.295Z,95.89
2019-02-20T03:29:40.671Z,95.91
2019-02-20T03:30:41.143Z,95.89
2019-02-20T03:31:41.612Z,95.89
2019-02-20T03:32:42.086Z,95.92
2019-02-20T03:33:42.672Z,95.90
2019-02-20T03:34:43.026Z,95.89
2019-02-20T03:35:43.499Z,95.89
2019-02-20T03:36:43.971Z,95.88
2019-02-20T03:37:44.440Z,95.92
2019-02-20T03:38:44.917Z,95.88
2019-02-20T03:39:45.384Z,95.88
2019-02-20T03:40:45.858Z,95.87
2019-02-20T03:41:46.330Z,95.88
2019-02-20T03:42:46.806Z,95.88
2019-02-20T03:43:47.274Z,95.91
2019-02-20T03:44:47.743Z,95.87
2019-02-20T03:45:48.218Z,95.88
2019-02-20T03:46:48.688Z,95.87
2019-02-20T03:47:49.158Z,95.87
2019-02-20T03:48:49.632Z,95.87
2019-02-20T03:49:50.104Z,95.87
2019-02-20T03:50:50.574Z,95.87
2019-02-20T03:51:51.049Z,95.87
2019-02-20T03:52:51.522Z,95.90
2019-02-20T03:53:52.482Z,95.86
2019-02-20T03:54:52.464Z,95.90
2019-02-20T03:55:52.935Z,95.87
2019-02-20T03:56:53.407Z,95.89
2019-02-20T03:57:53.930Z,95.87
2019-02-20T03:58:54.363Z,95.86
2019-02-20T03:59:54.841Z,95.86
2019-02-20T04:00:55.302Z,95.89
2019-02-20T04:01:55.765Z,95.89
2019-02-20T04:02:56.241Z,95.90
2019-02-20T04:03:56.713Z,95.90
2019-02-20T04:04:57.186Z,95.87
2019-02-20T04:05:57.655Z,95.87
2019-02-20T04:06:58.125Z,95.89
2019-02-20T04:07:58.600Z,95.90
2019-02-20T04:08:59.075Z,95.87
2019-02-20T04:09:59.541Z,95.90
2019-02-20T04:11:00.015Z,95.91
2019-02-20T04:12:00.494Z,95.89
2019-02-20T04:13:01.012Z,95.91
2019-02-20T04:14:01.432Z,95.88
2019-02-20T04:15:01.903Z,95.91
2019-02-20T04:16:02.379Z,95.91
2019-02-20T04:17:02.847Z,95.90
2019-02-20T04:18:03.326Z,95.92
2019-02-20T04:19:03.791Z,95.92
2019-02-20T04:20:04.266Z,95.92
2019-02-20T04:21:04.739Z,95.92
2019-02-20T04:22:05.209Z,95.93
2019-02-20T04:23:05.681Z,95.92
2019-02-20T04:24:06.151Z,95.91
2019-02-20T04:25:06.632Z,95.92
2019-02-20T04:26:07.097Z,95.93
2019-02-20T04:27:07.574Z,95.89
2019-02-20T04:28:08.041Z,95.93
2019-02-20T04:29:08.513Z,95.93
2019-02-20T04:30:08.985Z,95.89
2019-02-20T04:31:09.459Z,95.93
2019-02-20T04:32:09.931Z,95.93
2019-02-20T04:33:10.402Z,95.91
2019-02-20T04:34:10.874Z,95.93
2019-02-20T04:35:11.345Z,95.93
2019-02-20T04:36:11.822Z,95.93
2019-02-20T04:37:12.291Z,95.93
2019-02-20T04:38:12.765Z,95.93
2019-02-20T04:39:13.234Z,95.93
2019-02-20T04:40:13.739Z,95.92
2019-02-20T04:41:14.188Z,95.92
2019-02-20T04:42:14.660Z,95.93
2019-02-20T04:43:15.379Z,95.90
2019-02-20T04:44:15.601Z,95.93
2019-02-20T04:45:16.274Z,95.93
2019-02-20T04:46:16.544Z,95.90
2019-02-20T04:47:17.018Z,95.89
2019-02-20T04:48:17.485Z,95.90
2019-02-20T04:49:17.960Z,95.89
2019-02-20T04:50:18.429Z,95.89
2019-02-20T04:51:18.905Z,95.89
2019-02-20T04:52:19.375Z,95.89
2019-02-20T04:53:19.848Z,95.89
2019-02-20T04:54:20.320Z,95.89
2019-02-20T04:55:20.795Z,95.89
2019-02-20T04:56:21.268Z,95.88
2019-02-20T04:57:21.743Z,95.88
2019-02-20T04:58:22.212Z,95.87
2019-02-20T04:59:22.681Z,95.87
2019-02-20T05:00:23.174Z,95.87
2019-02-20T05:01:23.628Z,95.87
2019-02-20T05:02:24.099Z,95.86
2019-02-20T05:03:24.571Z,95.87
2019-02-20T05:04:25.047Z,95.86
2019-02-20T05:05:25.516Z,95.86
2019-02-20T05:06:25.989Z,95.85
2019-02-20T05:07:26.459Z,95.85
2019-02-20T05:08:26.930Z,95.84
2019-02-20T05:09:27.404Z,95.84
2019-02-20T05:10:27.876Z,95.82
2019-02-20T05:11:28.348Z,95.82
2019-02-20T05:12:28.817Z,95.83
2019-02-20T05:13:29.289Z,95.79
2019-02-20T05:14:29.760Z,95.79
2019-02-20T05:15:30.261Z,95.79
2019-02-20T05:16:30.700Z,95.80
2019-02-20T05:17:31.172Z,95.81
2019-02-20T05:18:31.641Z,95.82
2019-02-20T05:20:32.597Z,95.77
2019-02-20T05:21:33.050Z,95.76
2019-02-20T05:22:33.519Z,95.76
2019-02-20T05:23:33.987Z,95.76
2019-02-20T05:24:34.462Z,95.78
2019-02-20T05:25:34.926Z,95.77
2019-02-20T05:26:35.395Z,95.75
2019-02-20T05:27:35.863Z,95.75
2019-02-20T05:28:36.331Z,95.74
2019-02-20T05:29:36.804Z,95.74
2019-02-20T05:30:37.267Z,95.77
2019-02-20T05:31:37.737Z,95.74
2019-02-20T05:32:38.203Z,95.77
2019-02-20T05:33:38.674Z,95.73
2019-02-20T05:34:39.140Z,95.76
2019-02-20T05:35:39.617Z,95.76
2019-02-20T05:36:40.076Z,95.75
2019-02-20T05:37:40.544Z,95.76
2019-02-20T05:38:41.015Z,95.72
2019-02-20T05:39:41.485Z,95.76
2019-02-20T05:40:41.945Z,95.75
2019-02-20T05:41:42.415Z,95.75
2019-02-20T05:42:42.883Z,95.75
2019-02-20T05:43:43.353Z,95.74
2019-02-20T05:44:43.819Z,95.74
2019-02-20T05:45:44.286Z,95.74
2019-02-20T05:46:44.786Z,95.74
2019-02-20T05:47:45.225Z,95.74
2019-02-20T05:48:45.694Z,95.73
2019-02-20T05:49:46.161Z,95.73
2019-02-20T05:50:46.636Z,95.73
2019-02-20T05:51:47.097Z,95.73
2019-02-20T05:52:47.565Z,95.69
2019-02-20T05:53:48.036Z,95.70
2019-02-20T05:54:48.505Z,95.70
2019-02-20T05:55:48.975Z,95.67
2019-02-20T05:56:49.441Z,95.67
2019-02-20T05:57:49.912Z,95.67
2019-02-20T05:58:50.720Z,95.69
2019-02-20T05:59:50.852Z,95.67
2019-02-20T06:00:51.318Z,95.67
2019-02-20T06:01:51.789Z,95.66
2019-02-20T06:02:52.255Z,95.65
2019-02-20T06:03:52.724Z,95.69
2019-02-20T06:04:53.200Z,95.65
2019-02-20T06:05:53.666Z,95.64
2019-02-20T06:06:54.132Z,95.64
2019-02-20T06:07:54.603Z,95.64
2019-02-20T06:08:55.075Z,95.64
2019-02-20T06:09:55.545Z,95.64
2019-02-20T06:10:56.016Z,95.63
2019-02-20T06:11:56.486Z,95.63
2019-02-20T06:12:56.958Z,95.63
2019-02-20T06:13:57.476Z,95.62
2019-02-20T06:14:57.891Z,95.62
2019-02-20T06:15:58.363Z,95.62
2019-02-20T06:16:58.835Z,95.61
2019-02-20T06:17:59.307Z,95.61
2019-02-20T06:18:59.778Z,95.61
2019-02-20T06:20:00.330Z,95.60
2019-02-20T06:21:00.717Z,95.60
2019-02-20T06:22:01.185Z,95.60
2019-02-20T06:23:01.654Z,95.59
2019-02-20T06:24:02.129Z,95.59
2019-02-20T06:25:02.596Z,95.58
2019-02-20T06:26:03.066Z,95.58
2019-02-20T06:27:03.542Z,95.58
2019-02-20T06:28:04.007Z,95.58
2019-02-20T06:29:04.476Z,95.58
2019-02-20T06:30:04.950Z,95.58
2019-02-20T06:31:05.417Z,95.58
2019-02-20T06:32:05.889Z,95.57
2019-02-20T06:33:06.359Z,95.57
2019-02-20T06:34:06.836Z,95.57
2019-02-20T06:35:07.304Z,95.55
2019-02-20T06:36:07.773Z,95.57
2019-02-20T06:37:08.246Z,95.56
2019-02-20T06:38:11.079Z,95.56
2019-02-20T06:39:09.186Z,95.56
2019-02-20T06:40:09.661Z,95.56
2019-02-20T06:41:10.131Z,95.54
2019-02-20T06:42:10.598Z,95.52
2019-02-20T06:43:11.068Z,95.52
2019-02-20T06:44:11.540Z,95.52
2019-02-20T06:45:12.011Z,95.51
2019-02-20T06:46:12.482Z,95.51
2019-02-20T06:47:12.952Z,95.53
2019-02-20T06:48:13.428Z,95.51
2019-02-20T06:49:13.897Z,95.54
2019-02-20T06:50:14.369Z,95.50
2019-02-20T06:51:14.866Z,95.50
2019-02-20T06:52:15.309Z,95.54
2019-02-20T06:53:15.782Z,95.54
2019-02-20T06:54:16.292Z,95.49
2019-02-20T06:55:16.783Z,95.50
2019-02-20T06:56:17.198Z,95.49
2019-02-20T06:57:17.669Z,95.49
2019-02-20T06:58:18.144Z,95.49
2019-02-20T06:59:18.610Z,95.49
2019-02-20T07:00:19.089Z,95.49
2019-02-20T07:01:19.554Z,95.49
2019-02-20T07:02:20.024Z,95.49
2019-02-20T07:03:20.495Z,95.49
2019-02-20T07:04:20.965Z,95.49
2019-02-20T07:05:21.439Z,95.49
2019-02-20T07:06:21.910Z,95.49
2019-02-20T07:07:22.380Z,95.49
2019-02-20T07:08:22.873Z,95.49
2019-02-20T07:09:23.325Z,95.48
2019-02-20T07:10:23.798Z,95.48
2019-02-20T07:11:24.272Z,95.49
2019-02-20T07:12:24.738Z,95.49
2019-02-20T07:13:25.215Z,95.49
2019-02-20T07:14:25.690Z,95.49
2019-02-20T07:15:26.171Z,95.49
2019-02-20T07:16:26.625Z,95.49
2019-02-20T07:17:27.096Z,95.49
2019-02-20T07:18:27.570Z,95.49
2019-02-20T07:19:28.041Z,95.48
2019-02-20T07:20:28.513Z,95.49
2019-02-20T07:21:28.987Z,95.49
2019-02-20T07:22:29.470Z,95.49
2019-02-20T07:23:29.930Z,95.49
2019-02-20T07:24:30.403Z,95.49
2019-02-20T07:25:30.872Z,95.49
2019-02-20T07:26:31.344Z,95.49
2019-02-20T07:27:31.816Z,95.49
2019-02-20T07:28:32.289Z,95.49
2019-02-20T07:29:32.759Z,95.49
2019-02-20T07:30:33.233Z,95.49
2019-02-20T07:31:33.703Z,95.49
2019-02-20T07:32:34.176Z,95.49
2019-02-20T07:33:34.649Z,95.49
2019-02-20T07:34:35.118Z,95.49
2019-02-20T07:35:35.593Z,95.47
2019-02-20T07:36:36.079Z,95.49
2019-02-20T07:37:36.535Z,95.49
2019-02-20T07:38:37.007Z,95.49
2019-02-20T07:39:37.481Z,95.49
2019-02-20T07:40:37.951Z,95.49
2019-02-20T07:41:38.428Z,95.48
2019-02-20T07:42:38.896Z,95.49
2019-02-20T07:43:39.366Z,95.46
2019-02-20T07:44:39.957Z,95.48
2019-02-20T07:45:40.314Z,95.48
2019-02-20T07:46:40.784Z,95.46
2019-02-20T07:47:41.253Z,95.47
2019-02-20T07:48:41.727Z,95.48
2019-02-20T07:49:42.200Z,95.46
2019-02-20T07:50:42.671Z,95.48
2019-02-20T07:51:43.141Z,95.48
2019-02-20T07:52:43.613Z,95.48
2019-02-20T07:53:44.086Z,95.46
2019-02-20T07:54:44.570Z,95.50
2019-02-20T07:55:45.028Z,95.48
2019-02-20T07:56:45.503Z,95.46
2019-02-20T07:57:45.976Z,95.46
2019-02-20T07:58:46.448Z,95.48
2019-02-20T07:59:46.967Z,95.46
2019-02-20T08:00:47.391Z,95.49
2019-02-20T08:01:47.863Z,95.46
2019-02-20T08:02:48.335Z,95.49
2019-02-20T08:03:48.806Z,95.46
2019-02-20T08:04:49.279Z,95.47
2019-02-20T08:05:49.755Z,95.47
2019-02-20T08:06:50.246Z,95.46
2019-02-20T08:07:50.694Z,95.47
2019-02-20T08:08:51.165Z,95.47
2019-02-20T08:09:51.638Z,95.47
2019-02-20T08:10:52.110Z,95.47
2019-02-20T08:11:52.583Z,95.47
2019-02-20T08:12:53.067Z,95.47
2019-02-20T08:13:53.528Z,95.47
2019-02-20T08:14:54.086Z,95.46
2019-02-20T08:15:54.478Z,95.47
2019-02-20T08:16:54.946Z,95.47
2019-02-20T08:17:55.434Z,95.46
2019-02-20T08:18:55.890Z,95.46
2019-02-20T08:19:56.358Z,95.46
2019-02-20T08:20:56.831Z,95.47
2019-02-20T08:21:57.303Z,95.46
2019-02-20T08:22:57.775Z,95.46
2019-02-20T08:23:58.251Z,95.47
2019-02-20T08:24:58.821Z,95.46
2019-02-20T08:25:59.697Z,95.46
2019-02-20T08:26:59.669Z,95.46
2019-02-20T08:28:00.136Z,95.46
2019-02-20T08:29:00.607Z,95.46
2019-02-20T08:30:01.078Z,95.43
2019-02-20T08:31:01.550Z,95.46
2019-02-20T08:32:02.024Z,95.46
2019-02-20T08:33:02.496Z,95.44
2019-02-20T08:34:02.967Z,95.44
2019-02-20T08:35:03.441Z,95.42
2019-02-20T08:36:03.911Z,95.42
2019-02-20T08:37:04.384Z,95.42
2019-02-20T08:38:04.860Z,95.41
2019-02-20T08:39:05.328Z,95.42
2019-02-20T08:40:05.799Z,95.42
2019-02-20T08:41:06.611Z,95.42
2019-02-20T08:42:06.746Z,95.42
2019-02-20T08:43:07.226Z,95.41
2019-02-20T08:44:07.686Z,95.43
2019-02-20T08:45:08.210Z,95.45
2019-02-20T08:46:08.631Z,95.41
2019-02-20T08:47:09.104Z,95.41
2019-02-20T08:48:09.578Z,95.41
2019-02-20T08:49:10.050Z,95.41
2019-02-20T08:50:10.571Z,95.41
2019-02-20T08:51:10.999Z,95.41
2019-02-20T08:52:11.464Z,95.41
2019-02-20T08:53:11.934Z,95.43
2019-02-20T08:54:12.407Z,95.41
2019-02-20T08:55:12.879Z,95.41
2019-02-20T08:56:13.352Z,95.41
2019-02-20T08:57:13.826Z,95.41
2019-02-20T08:58:14.299Z,95.41
2019-02-20T08:59:14.771Z,95.41
2019-02-20T09:00:15.244Z,95.41
2019-02-20T09:01:15.711Z,95.41
2019-02-20T09:03:16.655Z,95.43
2019-02-20T09:04:17.127Z,95.41
2019-02-20T09:05:17.601Z,95.41
2019-02-20T09:06:18.072Z,95.40
2019-02-20T09:07:18.545Z,95.41
2019-02-20T09:08:19.018Z,95.40
2019-02-20T09:09:19.486Z,95.41
2019-02-20T09:10:19.967Z,95.41
2019-02-20T09:11:20.434Z,95.40
2019-02-20T09:12:20.903Z,95.41
2019-02-20T09:13:21.379Z,95.41
2019-02-20T09:14:21.849Z,95.41
2019-02-20T09:15:22.319Z,95.41
2019-02-20T09:16:22.792Z,95.40
2019-02-20T09:17:23.268Z,95.41
2019-02-20T09:18:23.737Z,95.40
2019-02-20T09:19:24.209Z,95.41
2019-02-20T09:20:24.684Z,95.40
2019-02-20T09:21:25.154Z,95.41
2019-02-20T09:22:25.625Z,95.40
2019-02-20T09:23:26.104Z,95.41
2019-02-20T09:24:26.569Z,95.41
2019-02-20T09:25:27.046Z,95.40
2019-02-20T09:26:27.513Z,95.40
2019-02-20T09:27:27.988Z,95.40
2019-02-20T09:28:28.457Z,95.41
2019-02-20T09:29:28.947Z,95.40
2019-02-20T09:30:29.855Z,95.40
2019-02-20T09:31:29.876Z,95.40
2019-02-20T09:32:30.344Z,95.40
2019-02-20T09:33:30.817Z,95.40
2019-02-20T09:34:31.290Z,95.41
2019-02-20T09:35:31.764Z,95.40
2019-02-20T09:36:32.233Z,95.41
2019-02-20T09:37:32.711Z,95.40
2019-02-20T09:38:33.178Z,95.41
2019-02-20T09:39:33.651Z,95.40
2019-02-20T09:40:34.121Z,95.38
2019-02-20T09:41:34.595Z,95.40
2019-02-20T09:42:35.066Z,95.40
2019-02-20T09:43:35.538Z,95.40
2019-02-20T09:44:36.010Z,95.40
2019-02-20T09:45:42.119Z,95.40
2019-02-20T09:46:36.958Z,95.38
2019-02-20T09:47:37.428Z,95.40
2019-02-20T09:48:37.900Z,95.40
2019-02-20T09:49:38.370Z,95.40
2019-02-20T09:50:38.842Z,95.40
2019-02-20T09:51:39.323Z,95.41
2019-02-20T09:52:39.787Z,95.40
2019-02-20T09:53:40.258Z,95.40
2019-02-20T09:54:40.733Z,95.40
2019-02-20T09:55:49.060Z,95.40
2019-02-20T09:56:41.674Z,95.40
2019-02-20T09:57:42.151Z,95.41
2019-02-20T09:58:42.623Z,95.41
2019-02-20T09:59:43.091Z,95.41
2019-02-20T10:00:43.562Z,95.41
2019-02-20T10:01:44.039Z,95.41
2019-02-20T10:02:44.511Z,95.41
2019-02-20T10:03:44.979Z,95.41
2019-02-20T10:04:45.453Z,95.41
2019-02-20T10:05:45.925Z,95.41
2019-02-20T10:06:46.394Z,95.41
2019-02-20T10:07:46.880Z,95.41
2019-02-20T10:08:47.344Z,95.37
2019-02-20T10:09:47.812Z,95.41
2019-02-20T10:10:48.286Z,95.41
2019-02-20T10:11:49.813Z,95.41
2019-02-20T10:12:49.229Z,95.41
2019-02-20T10:13:49.702Z,95.41
2019-02-20T10:14:50.173Z,95.41
2019-02-20T10:15:50.645Z,95.41
2019-02-20T10:16:51.116Z,95.41
2019-02-20T10:17:51.590Z,95.41
2019-02-20T10:18:52.059Z,95.41
2019-02-20T10:19:52.537Z,95.41
2019-02-20T10:20:53.004Z,95.41
2019-02-20T10:21:53.478Z,95.37
2019-02-20T10:22:53.956Z,95.41
2019-02-20T10:23:54.421Z,95.41
2019-02-20T10:24:54.932Z,95.41
2019-02-20T10:26:00.997Z,95.41
2019-02-20T10:27:00.618Z,95.41
2019-02-20T10:27:56.309Z,95.39
2019-02-20T10:28:56.784Z,95.41
2019-02-20T10:29:57.252Z,95.41
2019-02-20T10:30:57.832Z,95.41
2019-02-20T10:31:58.198Z,95.38
2019-02-20T10:32:58.669Z,95.42
2019-02-20T10:33:59.145Z,95.41
2019-02-20T10:34:59.611Z,95.39
2019-02-20T10:36:00.085Z,95.41
2019-02-20T10:37:00.556Z,95.38
2019-02-20T10:38:01.028Z,95.41
2019-02-20T10:41:02.444Z,95.41
2019-02-20T10:42:02.915Z,95.41
2019-02-20T10:43:03.719Z,95.41
2019-02-20T10:44:03.860Z,95.41
2019-02-20T10:45:04.336Z,95.41
2019-02-20T10:46:04.802Z,95.41
2019-02-20T10:47:05.276Z,95.40
2019-02-20T10:48:05.749Z,95.42
2019-02-20T10:49:06.220Z,95.40
2019-02-20T10:50:06.692Z,95.41
2019-02-20T10:51:07.163Z,95.42
2019-02-20T10:52:07.635Z,95.38
2019-02-20T10:53:08.107Z,95.42
2019-02-20T10:54:08.580Z,95.42
2019-02-20T10:55:09.052Z,95.42
2019-02-20T10:56:09.866Z,95.42
2019-02-20T10:57:09.994Z,95.42
2019-02-20T10:58:10.466Z,95.39
2019-02-20T10:59:10.938Z,95.42
2019-02-20T11:00:11.425Z,95.43
2019-02-20T11:01:12.043Z,95.43
2019-02-20T11:02:12.354Z,95.43
2019-02-20T11:03:12.825Z,95.39
2019-02-20T11:04:13.300Z,95.44
2019-02-20T11:05:13.769Z,95.44
2019-02-20T11:06:14.242Z,95.44
2019-02-20T11:07:14.719Z,95.44
2019-02-20T11:08:15.187Z,95.44
2019-02-20T11:09:15.692Z,95.44
2019-02-20T11:10:16.147Z,95.45
2019-02-20T11:11:16.606Z,95.43
2019-02-20T11:12:17.077Z,95.45
2019-02-20T11:13:17.547Z,95.45
2019-02-20T11:14:18.017Z,95.46
2019-02-20T11:15:18.493Z,95.46
2019-02-20T11:16:18.965Z,95.47
2019-02-20T11:17:19.434Z,95.47
2019-02-20T11:18:19.936Z,95.47
2019-02-20T11:19:20.378Z,95.47
2019-02-20T11:20:20.851Z,95.48
2019-02-20T11:21:21.322Z,95.48
2019-02-20T11:22:21.796Z,95.49
2019-02-20T11:23:22.267Z,95.49
2019-02-20T11:24:22.740Z,95.49
2019-02-20T11:25:23.209Z,95.50
2019-02-20T11:26:23.683Z,95.51
2019-02-20T11:27:24.160Z,95.53
2019-02-20T11:28:26.988Z,95.51
2019-02-20T11:29:25.110Z,95.54
2019-02-20T11:30:25.571Z,95.54
2019-02-20T11:31:26.096Z,95.54
2019-02-20T11:32:26.515Z,95.57
2019-02-20T11:33:26.988Z,95.57
2019-02-20T11:34:27.459Z,95.57
2019-02-20T11:35:27.929Z,95.54
2019-02-20T11:36:28.403Z,95.58
2019-02-20T11:37:28.875Z,95.57
2019-02-20T11:38:30.886Z,95.57
2019-02-20T11:39:37.560Z,95.57
2019-02-20T11:40:30.294Z,95.60
2019-02-20T11:41:30.762Z,95.60
2019-02-20T11:42:31.235Z,95.60
2019-02-20T11:43:31.705Z,95.59
2019-02-20T11:44:32.188Z,95.57
2019-02-20T11:45:32.650Z,95.61
2019-02-20T11:46:33.171Z,95.60
2019-02-20T11:47:33.709Z,95.60
2019-02-20T11:48:34.068Z,95.60
2019-02-20T11:49:34.541Z,95.59
2019-02-20T11:50:35.011Z,95.59
2019-02-20T11:51:35.480Z,95.59
2019-02-20T11:52:38.370Z,95.63
2019-02-20T11:53:37.398Z,95.60
2019-02-20T11:54:36.897Z,95.59
2019-02-20T11:55:37.371Z,95.59
2019-02-20T11:56:37.842Z,95.60
2019-02-20T11:57:38.312Z,95.60
2019-02-20T11:58:38.786Z,95.60
2019-02-20T11:59:39.258Z,95.60
2019-02-20T12:00:39.732Z,95.61
2019-02-20T12:01:40.200Z,95.61
2019-02-20T12:02:42.170Z,95.61
2019-02-20T12:03:41.147Z,95.61
2019-02-20T12:04:41.619Z,95.61
2019-02-20T12:05:43.309Z,95.61
2019-02-20T12:06:42.561Z,95.64
2019-02-20T12:07:43.032Z,95.61
2019-02-20T12:08:43.505Z,95.61
2019-02-20T12:09:45.368Z,95.61
2019-02-20T12:10:44.452Z,95.61
2019-02-20T12:11:45.024Z,95.61
2019-02-20T12:12:45.395Z,95.61
2019-02-20T12:13:45.865Z,95.62
2019-02-20T12:14:46.335Z,95.62
2019-02-20T12:15:46.809Z,95.61
2019-02-20T12:16:47.281Z,95.62
2019-02-20T12:17:47.751Z,95.61
2019-02-20T12:18:48.227Z,95.61
2019-02-20T12:19:48.696Z,95.61
2019-02-20T12:20:49.174Z,95.62
2019-02-20T12:21:49.639Z,95.61
2019-02-20T12:22:50.113Z,95.62
2019-02-20T12:23:50.585Z,95.62
2019-02-20T12:24:51.056Z,95.61
2019-02-20T12:25:51.529Z,95.64
2019-02-20T12:26:51.998Z,95.64
2019-02-20T12:27:52.471Z,95.65
2019-02-20T12:28:52.947Z,95.62
2019-02-20T12:29:53.415Z,95.63
2019-02-20T12:30:53.887Z,95.62
2019-02-20T12:31:54.410Z,95.65
2019-02-20T12:32:54.833Z,95.62
2019-02-20T12:33:55.302Z,95.65
2019-02-20T12:34:55.774Z,95.62
2019-02-20T12:35:56.589Z,95.65
2019-02-20T12:36:56.720Z,95.65
2019-02-20T12:37:57.196Z,95.61
2019-02-20T12:38:57.667Z,95.65
2019-02-20T12:39:58.136Z,95.64
2019-02-20T12:40:58.606Z,95.65
2019-02-20T12:41:59.078Z,95.65
2019-02-20T12:42:59.554Z,95.65
2019-02-20T12:44:00.024Z,95.65
2019-02-20T12:45:00.499Z,95.64
2019-02-20T12:46:00.965Z,95.66
2019-02-20T12:47:01.445Z,95.66
2019-02-20T12:48:01.911Z,95.64
2019-02-20T12:49:02.383Z,95.65
2019-02-20T12:50:02.854Z,95.65
2019-02-20T12:51:03.325Z,95.66
2019-02-20T12:52:03.798Z,95.66
2019-02-20T12:53:04.272Z,95.66
2019-02-20T12:54:04.745Z,95.66
2019-02-20T12:55:05.212Z,95.65
2019-02-20T12:56:10.081Z,95.66
2019-02-20T12:57:06.160Z,95.66
2019-02-20T12:58:06.627Z,95.66
2019-02-20T12:59:07.956Z,95.66
2019-02-20T13:00:07.573Z,95.66
2019-02-20T13:01:08.046Z,95.66
2019-02-20T13:02:08.515Z,95.66
2019-02-20T13:03:08.989Z,95.66
2019-02-20T13:04:09.460Z,95.66